sensor_id;sensor_type;location;lat;lon;timestamp;P1;durP1;ratioP1;P2;durP2;ratioP2
1000;SDS011;489;47.806;12.858;2023-04-28T00:01:47;6.30;;;5.03;;
1000;SDS011;489;47.806;12.858;2023-04-28T00:03:51;4.13;;;3.73;;
1000;SDS011;489;47.806;12.858;2023-04-28T00:05:54;4.83;;;4.23;;
1000;SDS011;489;47.806;12.858;2023-04-28T00:07:56;4.77;;;4.37;;
1000;SDS011;489;47.806;12.858;2023-04-28T00:09:58;4.97;;;4.00;;
1000;SDS011;489;47.806;12.858;2023-04-28T00:12:00;4.30;;;3.90;;
1000;SDS011;489;47.806;12.858;2023-04-28T00:14:03;5.10;;;4.63;;
1000;SDS011;489;47.806;12.858;2023-04-28T00:16:05;4.50;;;4.13;;
1000;SDS011;489;47.806;12.858;2023-04-28T00:18:08;4.40;;;4.00;;
1000;SDS011;489;47.806;12.858;2023-04-28T00:20:11;4.70;;;4.30;;
1000;SDS011;489;47.806;12.858;2023-04-28T00:22:13;3.80;;;3.50;;
1000;SDS011;489;47.806;12.858;2023-04-28T00:24:15;5.37;;;4.30;;
1000;SDS011;489;47.806;12.858;2023-04-28T00:26:17;4.73;;;3.73;;
1000;SDS011;489;47.806;12.858;2023-04-28T00:28:20;4.27;;;3.80;;
1000;SDS011;489;47.806;12.858;2023-04-28T00:30:22;4.13;;;3.73;;
1000;SDS011;489;47.806;12.858;2023-04-28T00:32:25;4.47;;;4.07;;
1000;SDS011;489;47.806;12.858;2023-04-28T00:34:46;4.00;;;3.70;;
1000;SDS011;489;47.806;12.858;2023-04-28T00:36:49;4.33;;;3.93;;
1000;SDS011;489;47.806;12.858;2023-04-28T00:38:51;4.53;;;4.10;;
1000;SDS011;489;47.806;12.858;2023-04-28T00:40:53;3.87;;;3.57;;
1000;SDS011;489;47.806;12.858;2023-04-28T00:42:56;3.93;;;3.60;;
1000;SDS011;489;47.806;12.858;2023-04-28T00:44:58;3.90;;;3.60;;
1000;SDS011;489;47.806;12.858;2023-04-28T00:47:05;4.00;;;3.70;;
1000;SDS011;489;47.806;12.858;2023-04-28T00:49:07;3.53;;;3.23;;
1000;SDS011;489;47.806;12.858;2023-04-28T00:51:09;7.33;;;3.70;;
1000;SDS011;489;47.806;12.858;2023-04-28T00:53:13;4.83;;;3.77;;
1000;SDS011;489;47.806;12.858;2023-04-28T00:55:15;4.33;;;3.93;;
1000;SDS011;489;47.806;12.858;2023-04-28T00:57:17;4.10;;;3.80;;
1000;SDS011;489;47.806;12.858;2023-04-28T00:59:20;3.90;;;3.60;;
1000;SDS011;489;47.806;12.858;2023-04-28T01:01:22;3.60;;;3.30;;
1000;SDS011;489;47.806;12.858;2023-04-28T01:03:24;4.13;;;3.73;;
1000;SDS011;489;47.806;12.858;2023-04-28T01:05:27;5.33;;;3.70;;
1000;SDS011;489;47.806;12.858;2023-04-28T01:07:30;4.00;;;3.60;;
1000;SDS011;489;47.806;12.858;2023-04-28T01:09:35;4.33;;;3.90;;
1000;SDS011;489;47.806;12.858;2023-04-28T01:11:39;3.73;;;3.43;;
1000;SDS011;489;47.806;12.858;2023-04-28T01:13:43;3.90;;;3.20;;
1000;SDS011;489;47.806;12.858;2023-04-28T01:15:45;3.43;;;3.17;;
1000;SDS011;489;47.806;12.858;2023-04-28T01:17:48;3.40;;;3.00;;
1000;SDS011;489;47.806;12.858;2023-04-28T01:19:50;3.43;;;3.13;;
1000;SDS011;489;47.806;12.858;2023-04-28T01:21:53;3.83;;;3.50;;
1000;SDS011;489;47.806;12.858;2023-04-28T01:23:57;3.77;;;3.47;;
1000;SDS011;489;47.806;12.858;2023-04-28T01:26:00;3.80;;;3.50;;
1000;SDS011;489;47.806;12.858;2023-04-28T01:28:02;3.47;;;3.17;;
1000;SDS011;489;47.806;12.858;2023-04-28T01:30:06;4.70;;;3.10;;
1000;SDS011;489;47.806;12.858;2023-04-28T01:32:09;3.10;;;2.90;;
1000;SDS011;489;47.806;12.858;2023-04-28T01:34:13;3.07;;;2.77;;
1000;SDS011;489;47.806;12.858;2023-04-28T01:36:15;3.10;;;2.90;;
1000;SDS011;489;47.806;12.858;2023-04-28T01:38:17;3.10;;;2.83;;
1000;SDS011;489;47.806;12.858;2023-04-28T01:40:21;3.97;;;3.43;;
1000;SDS011;489;47.806;12.858;2023-04-28T01:42:23;3.87;;;3.47;;
1000;SDS011;489;47.806;12.858;2023-04-28T01:44:26;3.77;;;3.47;;
1000;SDS011;489;47.806;12.858;2023-04-28T01:46:28;3.20;;;2.90;;
1000;SDS011;489;47.806;12.858;2023-04-28T01:48:31;3.47;;;3.17;;
1000;SDS011;489;47.806;12.858;2023-04-28T01:50:34;3.23;;;2.93;;
1000;SDS011;489;47.806;12.858;2023-04-28T01:52:38;3.03;;;2.83;;
1000;SDS011;489;47.806;12.858;2023-04-28T01:54:40;3.37;;;3.07;;
1000;SDS011;489;47.806;12.858;2023-04-28T01:56:44;3.80;;;3.50;;
1000;SDS011;489;47.806;12.858;2023-04-28T01:58:49;2.87;;;2.67;;
1000;SDS011;489;47.806;12.858;2023-04-28T02:00:51;3.30;;;3.00;;
1000;SDS011;489;47.806;12.858;2023-04-28T02:02:55;2.93;;;2.73;;
1000;SDS011;489;47.806;12.858;2023-04-28T02:04:57;3.20;;;2.90;;
1000;SDS011;489;47.806;12.858;2023-04-28T02:06:59;3.30;;;2.90;;
1000;SDS011;489;47.806;12.858;2023-04-28T02:09:01;3.10;;;2.90;;
1000;SDS011;489;47.806;12.858;2023-04-28T02:11:03;3.87;;;3.40;;
1000;SDS011;489;47.806;12.858;2023-04-28T02:13:07;5.63;;;3.57;;
1000;SDS011;489;47.806;12.858;2023-04-28T02:15:10;3.33;;;3.03;;
1000;SDS011;489;47.806;12.858;2023-04-28T02:17:12;3.67;;;2.80;;
1000;SDS011;489;47.806;12.858;2023-04-28T02:19:16;3.47;;;3.17;;
1000;SDS011;489;47.806;12.858;2023-04-28T02:21:18;4.20;;;3.80;;
1000;SDS011;489;47.806;12.858;2023-04-28T02:23:20;4.00;;;2.93;;
1000;SDS011;489;47.806;12.858;2023-04-28T02:25:22;2.83;;;2.63;;
1000;SDS011;489;47.806;12.858;2023-04-28T02:27:25;3.60;;;3.07;;
1000;SDS011;489;47.806;12.858;2023-04-28T02:29:30;4.00;;;3.03;;
1000;SDS011;489;47.806;12.858;2023-04-28T02:31:32;3.63;;;3.33;;
1000;SDS011;489;47.806;12.858;2023-04-28T02:33:34;3.73;;;3.30;;
1000;SDS011;489;47.806;12.858;2023-04-28T02:35:36;4.10;;;3.37;;
1000;SDS011;489;47.806;12.858;2023-04-28T02:37:38;3.77;;;3.23;;
1000;SDS011;489;47.806;12.858;2023-04-28T02:39:41;3.07;;;2.87;;
1000;SDS011;489;47.806;12.858;2023-04-28T02:41:44;3.13;;;2.83;;
1000;SDS011;489;47.806;12.858;2023-04-28T02:43:46;3.50;;;3.20;;
1000;SDS011;489;47.806;12.858;2023-04-28T02:45:49;3.40;;;3.20;;
1000;SDS011;489;47.806;12.858;2023-04-28T02:47:51;3.37;;;2.77;;
1000;SDS011;489;47.806;12.858;2023-04-28T02:49:53;4.17;;;3.23;;
1000;SDS011;489;47.806;12.858;2023-04-28T02:51:55;4.37;;;3.50;;
1000;SDS011;489;47.806;12.858;2023-04-28T02:53:57;3.27;;;3.03;;
1000;SDS011;489;47.806;12.858;2023-04-28T02:56:00;3.93;;;3.60;;
1000;SDS011;489;47.806;12.858;2023-04-28T02:58:05;2.77;;;2.57;;
1000;SDS011;489;47.806;12.858;2023-04-28T03:00:08;4.13;;;3.50;;
1000;SDS011;489;47.806;12.858;2023-04-28T03:02:19;3.30;;;3.00;;
1000;SDS011;489;47.806;12.858;2023-04-28T03:04:23;4.63;;;3.13;;
1000;SDS011;489;47.806;12.858;2023-04-28T03:06:25;3.20;;;2.60;;
1000;SDS011;489;47.806;12.858;2023-04-28T03:08:27;5.17;;;3.27;;
1000;SDS011;489;47.806;12.858;2023-04-28T03:10:29;3.07;;;2.80;;
1000;SDS011;489;47.806;12.858;2023-04-28T03:12:31;3.50;;;3.20;;
1000;SDS011;489;47.806;12.858;2023-04-28T03:14:34;3.10;;;2.80;;
1000;SDS011;489;47.806;12.858;2023-04-28T03:16:36;3.40;;;3.07;;
1000;SDS011;489;47.806;12.858;2023-04-28T03:18:40;3.87;;;3.20;;
1000;SDS011;489;47.806;12.858;2023-04-28T03:20:42;3.30;;;3.00;;
1000;SDS011;489;47.806;12.858;2023-04-28T03:22:44;3.40;;;3.10;;
1000;SDS011;489;47.806;12.858;2023-04-28T03:24:46;4.20;;;3.40;;
1000;SDS011;489;47.806;12.858;2023-04-28T03:26:49;3.60;;;3.20;;
1000;SDS011;489;47.806;12.858;2023-04-28T03:28:51;4.53;;;3.30;;
1000;SDS011;489;47.806;12.858;2023-04-28T03:30:53;4.30;;;3.30;;
1000;SDS011;489;47.806;12.858;2023-04-28T03:32:56;3.37;;;3.07;;
1000;SDS011;489;47.806;12.858;2023-04-28T03:35:00;3.07;;;2.77;;
1000;SDS011;489;47.806;12.858;2023-04-28T03:37:02;4.33;;;3.93;;
1000;SDS011;489;47.806;12.858;2023-04-28T03:39:04;4.00;;;3.30;;
1000;SDS011;489;47.806;12.858;2023-04-28T03:41:06;3.33;;;3.03;;
1000;SDS011;489;47.806;12.858;2023-04-28T03:43:27;4.17;;;3.87;;
1000;SDS011;489;47.806;12.858;2023-04-28T03:45:43;3.27;;;2.97;;
1000;SDS011;489;47.806;12.858;2023-04-28T03:47:45;3.67;;;3.37;;
1000;SDS011;489;47.806;12.858;2023-04-28T03:49:48;3.50;;;3.20;;
1000;SDS011;489;47.806;12.858;2023-04-28T03:51:52;4.03;;;3.10;;
1000;SDS011;489;47.806;12.858;2023-04-28T03:53:55;3.13;;;2.83;;
1000;SDS011;489;47.806;12.858;2023-04-28T03:55:57;3.40;;;3.10;;
1000;SDS011;489;47.806;12.858;2023-04-28T03:58:00;3.60;;;3.30;;
1000;SDS011;489;47.806;12.858;2023-04-28T04:00:02;4.43;;;3.90;;
1000;SDS011;489;47.806;12.858;2023-04-28T04:02:15;5.13;;;3.77;;
1000;SDS011;489;47.806;12.858;2023-04-28T04:04:17;4.80;;;3.60;;
1000;SDS011;489;47.806;12.858;2023-04-28T04:06:20;4.03;;;3.33;;
1000;SDS011;489;47.806;12.858;2023-04-28T04:08:23;3.70;;;3.40;;
1000;SDS011;489;47.806;12.858;2023-04-28T04:10:25;4.43;;;3.67;;
1000;SDS011;489;47.806;12.858;2023-04-28T04:12:27;3.30;;;3.00;;
1000;SDS011;489;47.806;12.858;2023-04-28T04:14:29;3.50;;;3.20;;
1000;SDS011;489;47.806;12.858;2023-04-28T04:16:34;2.70;;;2.50;;
1000;SDS011;489;47.806;12.858;2023-04-28T04:18:38;3.60;;;3.30;;
1000;SDS011;489;47.806;12.858;2023-04-28T04:20:50;6.70;;;3.70;;
1000;SDS011;489;47.806;12.858;2023-04-28T04:23:11;3.50;;;3.20;;
1000;SDS011;489;47.806;12.858;2023-04-28T04:25:15;5.20;;;3.60;;
1000;SDS011;489;47.806;12.858;2023-04-28T04:27:21;3.40;;;3.10;;
1000;SDS011;489;47.806;12.858;2023-04-28T04:29:23;3.20;;;2.90;;
1000;SDS011;489;47.806;12.858;2023-04-28T04:31:26;4.43;;;3.20;;
1000;SDS011;489;47.806;12.858;2023-04-28T04:33:28;3.77;;;3.40;;
1000;SDS011;489;47.806;12.858;2023-04-28T04:35:30;4.37;;;3.27;;
1000;SDS011;489;47.806;12.858;2023-04-28T04:37:32;2.73;;;2.53;;
1000;SDS011;489;47.806;12.858;2023-04-28T04:39:36;2.83;;;2.63;;
1000;SDS011;489;47.806;12.858;2023-04-28T04:41:39;3.70;;;2.70;;
1000;SDS011;489;47.806;12.858;2023-04-28T04:44:04;3.47;;;3.17;;
1000;SDS011;489;47.806;12.858;2023-04-28T04:46:12;3.07;;;2.80;;
1000;SDS011;489;47.806;12.858;2023-04-28T04:48:15;4.47;;;3.23;;
1000;SDS011;489;47.806;12.858;2023-04-28T04:50:17;4.00;;;3.20;;
1000;SDS011;489;47.806;12.858;2023-04-28T04:52:19;3.73;;;3.30;;
1000;SDS011;489;47.806;12.858;2023-04-28T04:54:21;4.47;;;3.43;;
1000;SDS011;489;47.806;12.858;2023-04-28T04:56:23;3.73;;;3.30;;
1000;SDS011;489;47.806;12.858;2023-04-28T04:58:27;3.10;;;2.80;;
1000;SDS011;489;47.806;12.858;2023-04-28T05:00:48;3.30;;;3.00;;
1000;SDS011;489;47.806;12.858;2023-04-28T05:02:50;2.80;;;2.60;;
1000;SDS011;489;47.806;12.858;2023-04-28T05:04:52;2.70;;;2.50;;
1000;SDS011;489;47.806;12.858;2023-04-28T05:06:55;4.17;;;3.37;;
1000;SDS011;489;47.806;12.858;2023-04-28T05:08:57;2.90;;;2.43;;
1000;SDS011;489;47.806;12.858;2023-04-28T05:10:59;3.03;;;2.73;;
1000;SDS011;489;47.806;12.858;2023-04-28T05:13:02;3.10;;;2.90;;
1000;SDS011;489;47.806;12.858;2023-04-28T05:15:07;3.10;;;2.80;;
1000;SDS011;489;47.806;12.858;2023-04-28T05:17:13;3.30;;;2.70;;
1000;SDS011;489;47.806;12.858;2023-04-28T05:19:15;3.90;;;2.97;;
1000;SDS011;489;47.806;12.858;2023-04-28T05:21:17;2.87;;;2.60;;
1000;SDS011;489;47.806;12.858;2023-04-28T05:23:21;2.83;;;2.60;;
1000;SDS011;489;47.806;12.858;2023-04-28T05:25:25;3.73;;;3.00;;
1000;SDS011;489;47.806;12.858;2023-04-28T05:27:28;4.03;;;3.10;;
1000;SDS011;489;47.806;12.858;2023-04-28T05:29:30;3.83;;;2.80;;
1000;SDS011;489;47.806;12.858;2023-04-28T05:31:33;2.70;;;2.50;;
1000;SDS011;489;47.806;12.858;2023-04-28T05:33:36;3.63;;;3.03;;
1000;SDS011;489;47.806;12.858;2023-04-28T05:35:38;4.03;;;3.63;;
1000;SDS011;489;47.806;12.858;2023-04-28T05:37:41;3.67;;;3.20;;
1000;SDS011;489;47.806;12.858;2023-04-28T05:39:44;3.60;;;3.30;;
1000;SDS011;489;47.806;12.858;2023-04-28T05:41:46;3.67;;;3.37;;
1000;SDS011;489;47.806;12.858;2023-04-28T05:43:48;3.50;;;3.20;;
1000;SDS011;489;47.806;12.858;2023-04-28T05:45:50;3.53;;;3.23;;
1000;SDS011;489;47.806;12.858;2023-04-28T05:47:54;4.40;;;3.27;;
1000;SDS011;489;47.806;12.858;2023-04-28T05:49:56;3.83;;;3.53;;
1000;SDS011;489;47.806;12.858;2023-04-28T05:51:58;3.20;;;2.90;;
1000;SDS011;489;47.806;12.858;2023-04-28T05:54:01;3.10;;;2.90;;
1000;SDS011;489;47.806;12.858;2023-04-28T05:56:04;3.80;;;3.40;;
1000;SDS011;489;47.806;12.858;2023-04-28T05:58:06;3.90;;;3.60;;
1000;SDS011;489;47.806;12.858;2023-04-28T06:00:09;5.37;;;3.37;;
1000;SDS011;489;47.806;12.858;2023-04-28T06:02:14;3.40;;;3.10;;
1000;SDS011;489;47.806;12.858;2023-04-28T06:04:18;3.80;;;3.30;;
1000;SDS011;489;47.806;12.858;2023-04-28T06:06:21;4.33;;;3.90;;
1000;SDS011;489;47.806;12.858;2023-04-28T06:08:23;3.50;;;3.20;;
1000;SDS011;489;47.806;12.858;2023-04-28T06:10:26;4.77;;;4.27;;
1000;SDS011;489;47.806;12.858;2023-04-28T06:12:27;4.83;;;4.20;;
1000;SDS011;489;47.806;12.858;2023-04-28T06:14:30;4.67;;;4.27;;
1000;SDS011;489;47.806;12.858;2023-04-28T06:16:31;4.50;;;4.10;;
1000;SDS011;489;47.806;12.858;2023-04-28T06:18:34;3.90;;;3.50;;
1000;SDS011;489;47.806;12.858;2023-04-28T06:20:38;3.73;;;3.43;;
1000;SDS011;489;47.806;12.858;2023-04-28T06:22:40;4.70;;;3.40;;
1000;SDS011;489;47.806;12.858;2023-04-28T06:24:42;4.50;;;3.60;;
1000;SDS011;489;47.806;12.858;2023-04-28T06:26:47;4.20;;;3.80;;
1000;SDS011;489;47.806;12.858;2023-04-28T06:28:50;3.83;;;3.13;;
1000;SDS011;489;47.806;12.858;2023-04-28T06:30:52;3.80;;;3.50;;
1000;SDS011;489;47.806;12.858;2023-04-28T06:32:54;4.37;;;3.97;;
1000;SDS011;489;47.806;12.858;2023-04-28T06:34:57;4.10;;;3.70;;
1000;SDS011;489;47.806;12.858;2023-04-28T06:37:01;4.37;;;3.97;;
1000;SDS011;489;47.806;12.858;2023-04-28T06:39:04;4.10;;;3.70;;
1000;SDS011;489;47.806;12.858;2023-04-28T06:41:07;4.90;;;4.50;;
1000;SDS011;489;47.806;12.858;2023-04-28T06:43:10;6.00;;;4.80;;
1000;SDS011;489;47.806;12.858;2023-04-28T06:45:24;5.00;;;4.50;;
1000;SDS011;489;47.806;12.858;2023-04-28T06:47:26;3.70;;;3.40;;
1000;SDS011;489;47.806;12.858;2023-04-28T06:49:28;3.80;;;3.50;;
1000;SDS011;489;47.806;12.858;2023-04-28T06:51:33;3.97;;;3.47;;
1000;SDS011;489;47.806;12.858;2023-04-28T06:53:37;4.17;;;3.00;;
1000;SDS011;489;47.806;12.858;2023-04-28T06:55:41;3.90;;;3.60;;
1000;SDS011;489;47.806;12.858;2023-04-28T06:57:43;5.60;;;4.00;;
1000;SDS011;489;47.806;12.858;2023-04-28T06:59:45;4.70;;;4.00;;
1000;SDS011;489;47.806;12.858;2023-04-28T07:01:47;3.93;;;3.40;;
1000;SDS011;489;47.806;12.858;2023-04-28T07:03:49;3.80;;;3.50;;
1000;SDS011;489;47.806;12.858;2023-04-28T07:05:51;4.50;;;4.03;;
1000;SDS011;489;47.806;12.858;2023-04-28T07:07:54;3.97;;;3.67;;
1000;SDS011;489;47.806;12.858;2023-04-28T07:09:57;4.60;;;4.17;;
1000;SDS011;489;47.806;12.858;2023-04-28T07:12:00;4.73;;;4.33;;
1000;SDS011;489;47.806;12.858;2023-04-28T07:14:03;4.30;;;3.90;;
1000;SDS011;489;47.806;12.858;2023-04-28T07:16:05;7.03;;;5.23;;
1000;SDS011;489;47.806;12.858;2023-04-28T07:18:07;3.90;;;3.30;;
1000;SDS011;489;47.806;12.858;2023-04-28T07:20:10;3.23;;;2.93;;
1000;SDS011;489;47.806;12.858;2023-04-28T07:22:12;3.27;;;2.97;;
1000;SDS011;489;47.806;12.858;2023-04-28T07:24:14;2.43;;;2.23;;
1000;SDS011;489;47.806;12.858;2023-04-28T07:26:21;3.10;;;2.80;;
1000;SDS011;489;47.806;12.858;2023-04-28T07:28:22;2.83;;;2.60;;
1000;SDS011;489;47.806;12.858;2023-04-28T07:30:25;2.63;;;2.43;;
1000;SDS011;489;47.806;12.858;2023-04-28T07:32:27;2.80;;;2.60;;
1000;SDS011;489;47.806;12.858;2023-04-28T07:34:29;3.60;;;2.40;;
1000;SDS011;489;47.806;12.858;2023-04-28T07:36:31;2.57;;;2.37;;
1000;SDS011;489;47.806;12.858;2023-04-28T07:38:33;2.60;;;2.40;;
1000;SDS011;489;47.806;12.858;2023-04-28T07:40:35;2.87;;;2.67;;
1000;SDS011;489;47.806;12.858;2023-04-28T07:42:38;2.20;;;2.00;;
1000;SDS011;489;47.806;12.858;2023-04-28T07:44:40;2.50;;;2.30;;
1000;SDS011;489;47.806;12.858;2023-04-28T07:46:42;3.87;;;2.30;;
1000;SDS011;489;47.806;12.858;2023-04-28T07:48:44;3.43;;;2.70;;
1000;SDS011;489;47.806;12.858;2023-04-28T07:50:49;2.60;;;2.40;;
1000;SDS011;489;47.806;12.858;2023-04-28T07:52:51;2.87;;;2.43;;
1000;SDS011;489;47.806;12.858;2023-04-28T07:54:53;2.40;;;2.20;;
1000;SDS011;489;47.806;12.858;2023-04-28T07:56:55;2.43;;;2.23;;
1000;SDS011;489;47.806;12.858;2023-04-28T07:58:59;2.63;;;2.20;;
1000;SDS011;489;47.806;12.858;2023-04-28T08:01:01;2.97;;;2.67;;
1000;SDS011;489;47.806;12.858;2023-04-28T08:03:03;4.37;;;2.30;;
1000;SDS011;489;47.806;12.858;2023-04-28T08:05:05;2.77;;;2.40;;
1000;SDS011;489;47.806;12.858;2023-04-28T08:07:08;3.40;;;2.13;;
1000;SDS011;489;47.806;12.858;2023-04-28T08:09:10;3.70;;;2.30;;
1000;SDS011;489;47.806;12.858;2023-04-28T08:11:12;2.97;;;2.40;;
1000;SDS011;489;47.806;12.858;2023-04-28T08:13:14;2.70;;;2.47;;
1000;SDS011;489;47.806;12.858;2023-04-28T08:15:18;3.87;;;2.70;;
1000;SDS011;489;47.806;12.858;2023-04-28T08:17:20;8.43;;;3.20;;
1000;SDS011;489;47.806;12.858;2023-04-28T08:19:22;3.67;;;2.93;;
1000;SDS011;489;47.806;12.858;2023-04-28T08:21:24;3.60;;;2.30;;
1000;SDS011;489;47.806;12.858;2023-04-28T08:23:27;2.50;;;2.30;;
1000;SDS011;489;47.806;12.858;2023-04-28T08:25:31;2.50;;;2.30;;
1000;SDS011;489;47.806;12.858;2023-04-28T08:27:34;2.53;;;2.33;;
1000;SDS011;489;47.806;12.858;2023-04-28T08:29:37;5.63;;;2.40;;
1000;SDS011;489;47.806;12.858;2023-04-28T08:31:41;2.27;;;2.07;;
1000;SDS011;489;47.806;12.858;2023-04-28T08:33:43;1.87;;;1.77;;
1000;SDS011;489;47.806;12.858;2023-04-28T08:35:47;2.10;;;1.93;;
1000;SDS011;489;47.806;12.858;2023-04-28T08:37:50;1.70;;;1.60;;
1000;SDS011;489;47.806;12.858;2023-04-28T08:39:52;2.00;;;1.90;;
1000;SDS011;489;47.806;12.858;2023-04-28T08:42:01;3.17;;;2.40;;
1000;SDS011;489;47.806;12.858;2023-04-28T08:44:05;1.93;;;1.63;;
1000;SDS011;489;47.806;12.858;2023-04-28T08:46:09;3.67;;;2.40;;
1000;SDS011;489;47.806;12.858;2023-04-28T08:48:16;2.33;;;2.13;;
1000;SDS011;489;47.806;12.858;2023-04-28T08:50:22;2.00;;;1.87;;
1000;SDS011;489;47.806;12.858;2023-04-28T08:52:24;2.60;;;2.40;;
1000;SDS011;489;47.806;12.858;2023-04-28T08:54:29;2.43;;;2.23;;
1000;SDS011;489;47.806;12.858;2023-04-28T08:56:33;2.20;;;2.10;;
1000;SDS011;489;47.806;12.858;2023-04-28T08:58:35;3.37;;;2.30;;
1000;SDS011;489;47.806;12.858;2023-04-28T09:00:38;2.30;;;2.10;;
1000;SDS011;489;47.806;12.858;2023-04-28T09:02:39;2.10;;;2.00;;
1000;SDS011;489;47.806;12.858;2023-04-28T09:04:43;2.30;;;2.10;;
1000;SDS011;489;47.806;12.858;2023-04-28T09:06:45;2.10;;;2.00;;
1000;SDS011;489;47.806;12.858;2023-04-28T09:08:47;3.00;;;2.70;;
1000;SDS011;489;47.806;12.858;2023-04-28T09:10:57;3.10;;;2.80;;
1000;SDS011;489;47.806;12.858;2023-04-28T09:13:06;3.23;;;2.93;;
1000;SDS011;489;47.806;12.858;2023-04-28T09:15:09;3.43;;;3.13;;
1000;SDS011;489;47.806;12.858;2023-04-28T09:17:12;4.17;;;3.77;;
1000;SDS011;489;47.806;12.858;2023-04-28T09:19:16;3.13;;;2.83;;
1000;SDS011;489;47.806;12.858;2023-04-28T09:21:19;3.80;;;3.50;;
1000;SDS011;489;47.806;12.858;2023-04-28T09:23:21;4.20;;;3.23;;
1000;SDS011;489;47.806;12.858;2023-04-28T09:25:23;3.87;;;3.53;;
1000;SDS011;489;47.806;12.858;2023-04-28T09:27:27;4.60;;;4.20;;
1000;SDS011;489;47.806;12.858;2023-04-28T09:29:29;5.73;;;3.23;;
1000;SDS011;489;47.806;12.858;2023-04-28T09:31:31;4.03;;;3.70;;
1000;SDS011;489;47.806;12.858;2023-04-28T09:33:42;3.70;;;3.40;;
1000;SDS011;489;47.806;12.858;2023-04-28T09:35:57;4.10;;;3.70;;
1000;SDS011;489;47.806;12.858;2023-04-28T09:38:00;3.97;;;3.57;;
1000;SDS011;489;47.806;12.858;2023-04-28T09:40:04;5.10;;;3.70;;
1000;SDS011;489;47.806;12.858;2023-04-28T09:42:07;4.50;;;4.10;;
1000;SDS011;489;47.806;12.858;2023-04-28T09:44:10;4.30;;;3.90;;
1000;SDS011;489;47.806;12.858;2023-04-28T09:46:16;4.37;;;3.97;;
1000;SDS011;489;47.806;12.858;2023-04-28T09:48:29;4.77;;;4.30;;
1000;SDS011;489;47.806;12.858;2023-04-28T09:50:38;4.23;;;3.83;;
1000;SDS011;489;47.806;12.858;2023-04-28T09:52:40;4.60;;;4.20;;
1000;SDS011;489;47.806;12.858;2023-04-28T09:54:45;4.30;;;3.90;;
1000;SDS011;489;47.806;12.858;2023-04-28T09:56:50;4.00;;;3.60;;
1000;SDS011;489;47.806;12.858;2023-04-28T09:58:52;3.80;;;3.50;;
1000;SDS011;489;47.806;12.858;2023-04-28T10:00:57;3.70;;;3.40;;
1000;SDS011;489;47.806;12.858;2023-04-28T10:03:00;4.13;;;3.73;;
1000;SDS011;489;47.806;12.858;2023-04-28T10:05:02;3.73;;;3.43;;
1000;SDS011;489;47.806;12.858;2023-04-28T10:07:07;2.63;;;2.43;;
1000;SDS011;489;47.806;12.858;2023-04-28T10:09:10;2.90;;;2.60;;
1000;SDS011;489;47.806;12.858;2023-04-28T10:11:15;4.10;;;3.03;;
1000;SDS011;489;47.806;12.858;2023-04-28T10:13:17;3.67;;;3.37;;
1000;SDS011;489;47.806;12.858;2023-04-28T10:15:19;3.67;;;3.37;;
1000;SDS011;489;47.806;12.858;2023-04-28T10:17:22;3.30;;;3.10;;
1000;SDS011;489;47.806;12.858;2023-04-28T10:19:28;3.40;;;3.10;;
1000;SDS011;489;47.806;12.858;2023-04-28T10:21:31;3.47;;;3.13;;
1000;SDS011;489;47.806;12.858;2023-04-28T10:23:45;2.83;;;2.63;;
1000;SDS011;489;47.806;12.858;2023-04-28T10:25:55;4.13;;;2.90;;
1000;SDS011;489;47.806;12.858;2023-04-28T10:28:03;3.00;;;2.70;;
1000;SDS011;489;47.806;12.858;2023-04-28T10:30:08;2.00;;;1.90;;
1000;SDS011;489;47.806;12.858;2023-04-28T10:32:15;2.50;;;2.20;;
1000;SDS011;489;47.806;12.858;2023-04-28T10:34:21;3.00;;;2.50;;
1000;SDS011;489;47.806;12.858;2023-04-28T10:36:46;3.07;;;2.30;;
1000;SDS011;489;47.806;12.858;2023-04-28T10:39:09;2.50;;;2.30;;
1000;SDS011;489;47.806;12.858;2023-04-28T10:43:34;2.40;;;2.20;;
1000;SDS011;489;47.806;12.858;2023-04-28T10:48:03;2.40;;;2.20;;
1000;SDS011;489;47.806;12.858;2023-04-28T10:50:07;2.10;;;2.00;;
1000;SDS011;489;47.806;12.858;2023-04-28T10:54:50;2.87;;;2.57;;
1000;SDS011;489;47.806;12.858;2023-04-28T10:57:35;2.03;;;1.93;;
1000;SDS011;489;47.806;12.858;2023-04-28T10:59:39;2.30;;;2.10;;
1000;SDS011;489;47.806;12.858;2023-04-28T11:01:41;3.90;;;2.70;;
1000;SDS011;489;47.806;12.858;2023-04-28T11:03:47;3.30;;;2.77;;
1000;SDS011;489;47.806;12.858;2023-04-28T11:13:25;2.80;;;2.60;;
1000;SDS011;489;47.806;12.858;2023-04-28T11:15:32;3.67;;;2.83;;
1000;SDS011;489;47.806;12.858;2023-04-28T11:17:37;2.40;;;2.20;;
1000;SDS011;489;47.806;12.858;2023-04-28T11:19:42;3.33;;;3.07;;
1000;SDS011;489;47.806;12.858;2023-04-28T11:21:44;2.90;;;2.70;;
1000;SDS011;489;47.806;12.858;2023-04-28T11:23:47;12.33;;;9.87;;
1000;SDS011;489;47.806;12.858;2023-04-28T11:25:52;4.47;;;3.77;;
1000;SDS011;489;47.806;12.858;2023-04-28T11:27:54;3.70;;;3.33;;
1000;SDS011;489;47.806;12.858;2023-04-28T11:30:18;3.30;;;3.00;;
1000;SDS011;489;47.806;12.858;2023-04-28T11:32:26;3.90;;;3.07;;
1000;SDS011;489;47.806;12.858;2023-04-28T11:34:29;3.87;;;3.53;;
1000;SDS011;489;47.806;12.858;2023-04-28T11:36:32;3.43;;;3.13;;
1000;SDS011;489;47.806;12.858;2023-04-28T11:38:42;3.20;;;2.90;;
1000;SDS011;489;47.806;12.858;2023-04-28T11:40:54;2.90;;;2.67;;
1000;SDS011;489;47.806;12.858;2023-04-28T11:42:58;2.80;;;2.60;;
1000;SDS011;489;47.806;12.858;2023-04-28T11:45:00;3.03;;;2.73;;
1000;SDS011;489;47.806;12.858;2023-04-28T11:47:03;3.73;;;3.27;;
1000;SDS011;489;47.806;12.858;2023-04-28T11:49:07;3.37;;;2.97;;
1000;SDS011;489;47.806;12.858;2023-04-28T11:51:08;3.80;;;2.87;;
1000;SDS011;489;47.806;12.858;2023-04-28T11:53:11;2.90;;;2.60;;
1000;SDS011;489;47.806;12.858;2023-04-28T11:55:15;2.43;;;2.23;;
1000;SDS011;489;47.806;12.858;2023-04-28T11:57:17;2.70;;;2.50;;
1000;SDS011;489;47.806;12.858;2023-04-28T11:59:23;2.37;;;2.17;;
1000;SDS011;489;47.806;12.858;2023-04-28T12:01:25;2.33;;;2.13;;
1000;SDS011;489;47.806;12.858;2023-04-28T12:03:27;2.60;;;2.40;;
1000;SDS011;489;47.806;12.858;2023-04-28T12:05:31;2.27;;;2.00;;
1000;SDS011;489;47.806;12.858;2023-04-28T12:07:39;1.80;;;1.70;;
1000;SDS011;489;47.806;12.858;2023-04-28T12:09:43;2.40;;;2.20;;
1000;SDS011;489;47.806;12.858;2023-04-28T12:11:55;2.83;;;2.20;;
1000;SDS011;489;47.806;12.858;2023-04-28T12:16:09;2.00;;;1.80;;
1000;SDS011;489;47.806;12.858;2023-04-28T12:18:13;2.20;;;2.00;;
1000;SDS011;489;47.806;12.858;2023-04-28T12:20:35;2.30;;;1.77;;
1000;SDS011;489;47.806;12.858;2023-04-28T12:22:44;1.80;;;1.63;;
1000;SDS011;489;47.806;12.858;2023-04-28T12:25:01;1.90;;;1.67;;
1000;SDS011;489;47.806;12.858;2023-04-28T12:27:13;2.30;;;2.10;;
1000;SDS011;489;47.806;12.858;2023-04-28T12:29:34;3.77;;;3.47;;
1000;SDS011;489;47.806;12.858;2023-04-28T12:31:49;2.40;;;1.73;;
1000;SDS011;489;47.806;12.858;2023-04-28T12:33:54;1.83;;;1.70;;
1000;SDS011;489;47.806;12.858;2023-04-28T12:35:58;1.97;;;1.87;;
1000;SDS011;489;47.806;12.858;2023-04-28T12:38:00;1.80;;;1.70;;
1000;SDS011;489;47.806;12.858;2023-04-28T12:40:02;2.30;;;2.10;;
1000;SDS011;489;47.806;12.858;2023-04-28T12:42:05;2.37;;;2.17;;
1000;SDS011;489;47.806;12.858;2023-04-28T12:44:08;2.40;;;2.10;;
1000;SDS011;489;47.806;12.858;2023-04-28T12:46:13;2.73;;;2.17;;
1000;SDS011;489;47.806;12.858;2023-04-28T12:48:15;2.90;;;2.70;;
1000;SDS011;489;47.806;12.858;2023-04-28T12:50:17;2.20;;;2.03;;
1000;SDS011;489;47.806;12.858;2023-04-28T12:52:20;1.70;;;1.60;;
1000;SDS011;489;47.806;12.858;2023-04-28T12:54:22;3.77;;;1.60;;
1000;SDS011;489;47.806;12.858;2023-04-28T12:56:24;1.63;;;1.53;;
1000;SDS011;489;47.806;12.858;2023-04-28T12:58:26;2.13;;;1.90;;
1000;SDS011;489;47.806;12.858;2023-04-28T13:00:28;1.50;;;1.40;;
1000;SDS011;489;47.806;12.858;2023-04-28T13:02:30;1.20;;;1.10;;
1000;SDS011;489;47.806;12.858;2023-04-28T13:04:32;1.77;;;1.30;;
1000;SDS011;489;47.806;12.858;2023-04-28T13:06:34;1.03;;;0.93;;
1000;SDS011;489;47.806;12.858;2023-04-28T13:08:38;1.17;;;0.87;;